Time;durP1;ratioP1;P1;durP2;ratioP2;P2;SDS_P1;SDS_P2;PMS_P1;PMS_P2;Temp;Humidity;BMP_temperature;BMP_pressure;BME280_temperature;BME280_humidity;BME280_pressure;Samples;Min_cycle;Max_cycle;Signal;HPM_P1;HPM_P2
2024/01/14 00:00:30;;;;;;;;;;;3.00;99.90;;;;;;4959460;29;19925;-76
2024/01/14 00:03:17;;;;;;;;;;;3.00;99.90;;;;;;4947134;28;20398;-76
2024/01/14 00:06:05;;;;;;;;;;;3.00;99.90;;;;;;4945055;29;19937;-78
2024/01/14 00:08:50;;;;;;;;;;;3.00;99.90;;;;;;4958677;29;19914;-77
2024/01/14 00:11:38;;;;;;;;;;;3.00;99.90;;;;;;4956804;29;19919;-78
2024/01/14 00:14:24;;;;;;;;;;;3.00;99.90;;;;;;4968644;28;20492;-77
2024/01/14 00:17:11;;;;;;;;;;;3.00;99.90;;;;;;4937550;28;19930;-76
2024/01/14 00:19:58;;;;;;;;;;;3.00;99.90;;;;;;4962074;28;19926;-77
2024/01/14 00:22:44;;;;;;;;;;;3.00;99.90;;;;;;4966072;28;19949;-77
2024/01/14 00:25:31;;;;;;;;;;;3.00;99.90;;;;;;4956667;28;19933;-77
2024/01/14 00:28:17;;;;;;;;;;;3.00;99.90;;;;;;4940809;28;19919;-77
2024/01/14 00:31:04;;;;;;;;;;;3.00;99.90;;;;;;4936738;29;19977;-78
2024/01/14 00:33:51;;;;;;;;;;;3.00;99.90;;;;;;4936534;28;19922;-77
2024/01/14 00:36:39;;;;;;;;;;;3.00;99.90;;;;;;4923194;29;19962;-77
2024/01/14 00:39:25;;;;;;;;;;;3.00;99.90;;;;;;4930859;29;20582;-77
2024/01/14 00:42:12;;;;;;;;;;;3.00;99.90;;;;;;4955259;29;19970;-77
2024/01/14 00:44:59;;;;;;;;;;;3.00;99.90;;;;;;4950553;28;19969;-77
2024/01/14 00:47:45;;;;;;;;;;;3.00;99.90;;;;;;4945230;28;19914;-78
2024/01/14 00:50:31;;;;;;;;;;;3.00;99.90;;;;;;4925437;29;19918;-77
2024/01/14 00:53:18;;;;;;;;;;;2.90;99.90;;;;;;4947374;29;20276;-76
2024/01/14 00:56:05;;;;;;;;;;;2.90;99.90;;;;;;4943956;28;19925;-77
2024/01/14 00:58:52;;;;;;;;;;;2.90;99.90;;;;;;4938996;29;19926;-77
2024/01/14 01:01:40;;;;;;;;;;;2.90;99.90;;;;;;4937092;29;20447;-77
2024/01/14 01:04:52;;;;;;;;;;;2.90;99.90;;;;;;4282551;23;20007;-76
2024/01/14 01:07:38;;;;;;;;;;;2.90;99.90;;;;;;5063308;28;20226;-77
2024/01/14 01:10:24;;;;;;;;;;;2.80;99.90;;;;;;5061886;28;19916;-77
2024/01/14 01:13:10;;;;;;;;;;;2.80;99.90;;;;;;5040876;28;19916;-77
2024/01/14 01:15:56;;;;;;;;;;;2.70;99.90;;;;;;5033210;28;19955;-76
2024/01/14 01:18:41;;;;;;;;;;;2.70;99.90;;;;;;5045763;28;19912;-77
2024/01/14 01:21:27;;;;;;;;;;;2.70;99.90;;;;;;5073275;28;19924;-77
2024/01/14 01:24:14;;;;;;;;;;;2.70;99.90;;;;;;5060539;28;19913;-77
2024/01/14 01:27:00;;;;;;;;;;;2.70;99.90;;;;;;5060633;28;19916;-77
2024/01/14 01:29:46;;;;;;;;;;;2.70;99.90;;;;;;5043389;28;20004;-77
2024/01/14 01:32:32;;;;;;;;;;;2.80;99.90;;;;;;5061189;28;19999;-76
2024/01/14 01:35:18;;;;;;;;;;;2.80;99.90;;;;;;5032089;28;19917;-77
2024/01/14 01:38:04;;;;;;;;;;;2.80;99.90;;;;;;5052702;28;20324;-76
2024/01/14 01:40:50;;;;;;;;;;;2.80;99.90;;;;;;5061507;28;20003;-76
2024/01/14 01:43:36;;;;;;;;;;;2.80;99.90;;;;;;5075182;28;19917;-77
2024/01/14 01:46:22;;;;;;;;;;;2.80;99.90;;;;;;5059346;28;19913;-77
2024/01/14 01:49:08;;;;;;;;;;;2.90;99.90;;;;;;5059284;28;19973;-76
2024/01/14 01:51:55;;;;;;;;;;;2.90;99.90;;;;;;5069449;28;19971;-76
2024/01/14 01:54:41;;;;;;;;;;;2.90;99.90;;;;;;5046665;28;19923;-76
2024/01/14 01:57:27;;;;;;;;;;;2.90;99.90;;;;;;5069297;28;19920;-76
2024/01/14 02:00:13;;;;;;;;;;;2.90;99.90;;;;;;5044761;28;19923;-77
2024/01/14 02:03:00;;;;;;;;;;;3.00;99.90;;;;;;5059118;28;19955;-76
2024/01/14 02:05:46;;;;;;;;;;;3.00;99.90;;;;;;5069217;28;19986;-76
2024/01/14 02:08:32;;;;;;;;;;;3.00;99.90;;;;;;5066313;28;19912;-77
2024/01/14 02:11:18;;;;;;;;;;;3.00;99.90;;;;;;5079781;28;20561;-77
2024/01/14 02:14:04;;;;;;;;;;;3.00;99.90;;;;;;5079595;28;20646;-76
2024/01/14 02:16:51;;;;;;;;;;;3.00;99.90;;;;;;5047516;28;19916;-76
2024/01/14 02:19:37;;;;;;;;;;;2.90;99.90;;;;;;5088030;28;20006;-76
2024/01/14 02:22:25;;;;;;;;;;;2.90;99.90;;;;;;5072695;28;19916;-76
2024/01/14 02:25:11;;;;;;;;;;;3.00;99.90;;;;;;5070906;28;19916;-76
2024/01/14 02:27:57;;;;;;;;;;;2.90;99.90;;;;;;5076982;28;19919;-77
2024/01/14 02:30:43;;;;;;;;;;;2.90;99.90;;;;;;5079377;28;19931;-77
2024/01/14 02:33:29;;;;;;;;;;;3.00;99.90;;;;;;5064496;28;19912;-76
2024/01/14 02:36:15;;;;;;;;;;;3.00;99.90;;;;;;5076903;28;20240;-77
2024/01/14 02:39:01;;;;;;;;;;;3.00;99.90;;;;;;5080189;28;20525;-76
2024/01/14 02:41:47;;;;;;;;;;;3.00;99.90;;;;;;5079770;28;19977;-77
2024/01/14 02:44:32;;;;;;;;;;;2.90;99.90;;;;;;5065877;28;20326;-76
2024/01/14 02:47:18;;;;;;;;;;;3.00;99.90;;;;;;5065072;28;19951;-77
2024/01/14 02:50:04;;;;;;;;;;;3.00;99.90;;;;;;5076573;28;19940;-77
2024/01/14 02:52:50;;;;;;;;;;;2.90;99.90;;;;;;5058273;28;20321;-76
2024/01/14 02:55:36;;;;;;;;;;;2.90;99.90;;;;;;5059468;28;19923;-77
2024/01/14 02:58:22;;;;;;;;;;;2.90;99.90;;;;;;5089549;28;20298;-76
2024/01/14 03:01:08;;;;;;;;;;;2.90;99.90;;;;;;5082115;28;19966;-77
2024/01/14 03:03:53;;;;;;;;;;;2.80;99.90;;;;;;5055498;28;19928;-76
2024/01/14 03:06:39;;;;;;;;;;;2.70;99.90;;;;;;5078339;28;19932;-77
2024/01/14 03:09:25;;;;;;;;;;;2.70;99.90;;;;;;5093834;28;19912;-77
2024/01/14 03:12:11;;;;;;;;;;;2.70;99.90;;;;;;5079297;28;19969;-76
2024/01/14 03:14:57;;;;;;;;;;;2.70;99.90;;;;;;5072450;28;19935;-76
2024/01/14 03:17:43;;;;;;;;;;;2.70;99.90;;;;;;5073970;28;20627;-76
2024/01/14 03:20:28;;;;;;;;;;;2.60;99.90;;;;;;5078135;28;19924;-76
2024/01/14 03:23:14;;;;;;;;;;;2.60;99.90;;;;;;5077202;28;20270;-76
2024/01/14 03:26:00;;;;;;;;;;;2.60;99.90;;;;;;5063289;28;19916;-77
2024/01/14 03:28:46;;;;;;;;;;;2.60;99.90;;;;;;5067435;28;19916;-76
2024/01/14 03:31:32;;;;;;;;;;;2.60;99.90;;;;;;5059642;28;19913;-76
2024/01/14 03:34:18;;;;;;;;;;;2.60;99.90;;;;;;5076165;28;19947;-77
2024/01/14 03:37:04;;;;;;;;;;;2.60;99.90;;;;;;5054606;28;19916;-77
2024/01/14 03:39:49;;;;;;;;;;;2.60;99.90;;;;;;5093922;28;19966;-76
2024/01/14 03:42:35;;;;;;;;;;;2.60;99.90;;;;;;5068784;28;20275;-77
2024/01/14 03:45:21;;;;;;;;;;;2.60;99.90;;;;;;5065522;28;19924;-76
2024/01/14 03:48:07;;;;;;;;;;;2.70;99.90;;;;;;5077196;28;19947;-76
2024/01/14 03:50:53;;;;;;;;;;;2.70;99.90;;;;;;5055995;28;19917;-76
2024/01/14 03:53:39;;;;;;;;;;;2.70;99.90;;;;;;5059079;28;20344;-76
2024/01/14 03:56:25;;;;;;;;;;;2.70;99.90;;;;;;5060856;28;19973;-76
2024/01/14 03:59:10;;;;;;;;;;;2.80;99.90;;;;;;5077111;28;19920;-77
2024/01/14 04:01:56;;;;;;;;;;;2.80;99.90;;;;;;5064657;28;19920;-76
2024/01/14 04:04:42;;;;;;;;;;;2.80;99.90;;;;;;5054058;28;19916;-76
2024/01/14 04:07:28;;;;;;;;;;;2.80;99.90;;;;;;5094348;28;20697;-76
2024/01/14 04:10:14;;;;;;;;;;;2.80;99.90;;;;;;5077243;28;19916;-76
2024/01/14 04:13:00;;;;;;;;;;;2.80;99.90;;;;;;5095268;28;19941;-76
2024/01/14 04:15:46;;;;;;;;;;;2.80;99.90;;;;;;5068127;28;19912;-76
2024/01/14 04:18:32;;;;;;;;;;;2.80;99.90;;;;;;5067710;28;19942;-76
2024/01/14 04:21:21;;;;;;;;;;;2.80;99.90;;;;;;5073878;28;19963;-76
2024/01/14 04:24:07;;;;;;;;;;;2.80;99.90;;;;;;5062188;28;20547;-76
2024/01/14 04:26:53;;;;;;;;;;;2.70;99.90;;;;;;5073726;28;19948;-76
2024/01/14 04:29:39;;;;;;;;;;;2.70;99.90;;;;;;5069049;28;19995;-76
2024/01/14 04:32:25;;;;;;;;;;;2.70;99.90;;;;;;5076912;28;19944;-77
2024/01/14 04:35:11;;;;;;;;;;;2.70;99.90;;;;;;5060073;28;19916;-76
2024/01/14 04:37:57;;;;;;;;;;;2.60;99.90;;;;;;5078256;28;20286;-77
2024/01/14 04:40:44;;;;;;;;;;;2.60;99.90;;;;;;5053556;28;19919;-77
2024/01/14 04:43:30;;;;;;;;;;;2.60;99.90;;;;;;5094933;28;19947;-77
2024/01/14 04:46:16;;;;;;;;;;;2.60;99.90;;;;;;5079118;28;19922;-76
2024/01/14 04:49:01;;;;;;;;;;;2.60;99.90;;;;;;5062175;28;20235;-76
2024/01/14 04:51:47;;;;;;;;;;;2.60;99.90;;;;;;5081616;28;19999;-76
2024/01/14 04:54:33;;;;;;;;;;;2.70;99.90;;;;;;5064650;28;19959;-75
2024/01/14 04:57:19;;;;;;;;;;;2.60;99.90;;;;;;5081231;28;19956;-77
2024/01/14 05:00:05;;;;;;;;;;;2.70;99.90;;;;;;5064948;28;19924;-77
2024/01/14 05:02:51;;;;;;;;;;;2.70;99.90;;;;;;5067050;28;19912;-77
2024/01/14 05:05:37;;;;;;;;;;;2.70;99.90;;;;;;5058246;28;19930;-77
2024/01/14 05:08:23;;;;;;;;;;;2.70;99.90;;;;;;5064357;28;19923;-77
2024/01/14 05:11:09;;;;;;;;;;;2.60;99.90;;;;;;5073018;28;19912;-77
2024/01/14 05:13:55;;;;;;;;;;;2.70;99.90;;;;;;5046720;28;19923;-76
2024/01/14 05:16:41;;;;;;;;;;;2.70;99.90;;;;;;5082991;28;19926;-76
2024/01/14 05:19:27;;;;;;;;;;;2.70;99.90;;;;;;5079754;28;19920;-77
2024/01/14 05:22:13;;;;;;;;;;;2.70;99.90;;;;;;5094182;28;20223;-77
2024/01/14 05:24:59;;;;;;;;;;;2.70;99.90;;;;;;5054379;28;19970;-76
2024/01/14 05:27:45;;;;;;;;;;;2.70;99.90;;;;;;5089553;28;19951;-77
2024/01/14 05:30:31;;;;;;;;;;;2.70;99.90;;;;;;5079564;28;19927;-77
2024/01/14 05:33:17;;;;;;;;;;;2.70;99.90;;;;;;5066354;28;19916;-76
2024/01/14 05:36:03;;;;;;;;;;;2.70;99.90;;;;;;5068268;28;19920;-76
2024/01/14 05:38:49;;;;;;;;;;;2.70;99.90;;;;;;5074089;28;19919;-76
2024/01/14 05:41:35;;;;;;;;;;;2.70;99.90;;;;;;5059950;28;20282;-76
2024/01/14 05:44:21;;;;;;;;;;;2.70;99.90;;;;;;5078718;28;19947;-76
2024/01/14 05:47:07;;;;;;;;;;;2.80;99.90;;;;;;5078382;28;19912;-77
2024/01/14 05:49:53;;;;;;;;;;;2.80;99.90;;;;;;5065635;28;19912;-76
2024/01/14 05:52:39;;;;;;;;;;;2.80;99.90;;;;;;5067313;28;19919;-77
2024/01/14 05:55:25;;;;;;;;;;;2.80;99.90;;;;;;5082046;28;19912;-76
2024/01/14 05:58:11;;;;;;;;;;;2.80;99.90;;;;;;5076969;28;19912;-77
2024/01/14 06:00:57;;;;;;;;;;;2.80;99.90;;;;;;5066993;28;19972;-78
2024/01/14 06:03:42;;;;;;;;;;;2.90;99.90;;;;;;5077743;28;19952;-77
2024/01/14 06:06:29;;;;;;;;;;;2.90;99.90;;;;;;5063727;28;19955;-77
2024/01/14 06:09:16;;;;;;;;;;;2.90;99.90;;;;;;5059917;28;19917;-77
2024/01/14 06:12:02;;;;;;;;;;;2.90;99.90;;;;;;5080278;28;19996;-77
2024/01/14 06:14:48;;;;;;;;;;;2.90;99.90;;;;;;5058904;28;19916;-77
2024/01/14 06:17:34;;;;;;;;;;;2.90;99.90;;;;;;5060531;28;19912;-77
2024/01/14 06:20:20;;;;;;;;;;;2.90;99.90;;;;;;5064983;28;19924;-78
2024/01/14 06:23:06;;;;;;;;;;;2.90;99.90;;;;;;5079425;28;19955;-78
2024/01/14 06:25:51;;;;;;;;;;;3.00;99.90;;;;;;5079038;28;19940;-78
2024/01/14 06:28:37;;;;;;;;;;;2.90;99.90;;;;;;5050971;28;20312;-78
2024/01/14 06:31:23;;;;;;;;;;;2.90;99.90;;;;;;5080107;28;19912;-78
2024/01/14 06:34:09;;;;;;;;;;;2.90;99.90;;;;;;5069420;28;19955;-78
2024/01/14 06:36:55;;;;;;;;;;;2.80;99.90;;;;;;5080057;28;19912;-78
2024/01/14 06:39:42;;;;;;;;;;;2.80;99.90;;;;;;5077008;28;20239;-78
2024/01/14 06:42:28;;;;;;;;;;;2.90;99.90;;;;;;5050843;28;19916;-79
2024/01/14 06:45:14;;;;;;;;;;;2.80;99.90;;;;;;5079653;28;19999;-78
2024/01/14 06:48:00;;;;;;;;;;;2.90;99.90;;;;;;5057545;28;19916;-77
2024/01/14 06:50:46;;;;;;;;;;;2.90;99.90;;;;;;5078924;28;20026;-76
2024/01/14 06:53:32;;;;;;;;;;;2.90;99.90;;;;;;5059474;28;19952;-77
2024/01/14 06:56:18;;;;;;;;;;;2.90;99.90;;;;;;5071464;28;20308;-78
2024/01/14 06:59:04;;;;;;;;;;;2.90;99.90;;;;;;5077962;28;19923;-77
2024/01/14 07:01:50;;;;;;;;;;;2.90;99.90;;;;;;5073688;28;19924;-77
2024/01/14 07:04:37;;;;;;;;;;;3.00;99.90;;;;;;5061893;28;19920;-77
2024/01/14 07:07:23;;;;;;;;;;;3.00;99.90;;;;;;5059548;28;20320;-77
2024/01/14 07:10:09;;;;;;;;;;;3.00;99.90;;;;;;5073740;28;20288;-77
2024/01/14 07:12:55;;;;;;;;;;;3.00;99.90;;;;;;5071645;28;19973;-77
2024/01/14 07:15:41;;;;;;;;;;;2.90;99.90;;;;;;5094140;28;20321;-77
2024/01/14 07:18:29;;;;;;;;;;;3.00;99.90;;;;;;5072968;28;20244;-77
2024/01/14 07:21:15;;;;;;;;;;;2.90;99.90;;;;;;5059190;28;19966;-77
2024/01/14 07:24:01;;;;;;;;;;;2.90;99.90;;;;;;5044773;28;19918;-77
2024/01/14 07:26:47;;;;;;;;;;;2.90;99.90;;;;;;5077820;28;20270;-77
2024/01/14 07:29:33;;;;;;;;;;;2.90;99.90;;;;;;5078842;28;19985;-77
2024/01/14 07:32:19;;;;;;;;;;;3.00;99.90;;;;;;5065554;28;19931;-77
2024/01/14 07:35:05;;;;;;;;;;;3.00;99.90;;;;;;5065701;28;19926;-77
2024/01/14 07:37:52;;;;;;;;;;;3.00;99.90;;;;;;5064608;28;19912;-76
2024/01/14 07:40:38;;;;;;;;;;;2.90;99.90;;;;;;5065991;28;20002;-77
2024/01/14 07:43:24;;;;;;;;;;;3.00;99.90;;;;;;5078537;28;19916;-77
2024/01/14 07:46:10;;;;;;;;;;;2.90;99.90;;;;;;5078112;28;20354;-77
2024/01/14 07:48:56;;;;;;;;;;;2.90;99.90;;;;;;5081009;28;19912;-77
2024/01/14 07:51:42;;;;;;;;;;;2.90;99.90;;;;;;5076611;28;19916;-78
2024/01/14 07:54:27;;;;;;;;;;;2.90;99.90;;;;;;5048510;28;19955;-78
2024/01/14 07:57:13;;;;;;;;;;;2.90;99.90;;;;;;5063548;28;19916;-77
2024/01/14 07:59:59;;;;;;;;;;;2.90;99.90;;;;;;5082352;28;19916;-77
2024/01/14 08:02:45;;;;;;;;;;;2.90;99.90;;;;;;5083141;28;19912;-78
2024/01/14 08:05:31;;;;;;;;;;;2.90;99.90;;;;;;5048869;28;19931;-77
2024/01/14 08:08:17;;;;;;;;;;;2.90;99.90;;;;;;5067403;28;19962;-77
2024/01/14 08:11:03;;;;;;;;;;;2.90;99.90;;;;;;5068944;28;20443;-77
2024/01/14 08:13:49;;;;;;;;;;;2.90;99.90;;;;;;5069526;28;20026;-78
2024/01/14 08:16:35;;;;;;;;;;;3.00;99.90;;;;;;5081825;28;19916;-78
2024/01/14 08:19:21;;;;;;;;;;;2.90;99.90;;;;;;5067931;28;19913;-78
2024/01/14 08:22:07;;;;;;;;;;;;;;;;;;5083077;28;19912;-78
2024/01/14 08:24:54;;;;;;;;;;;2.90;99.90;;;;;;5096814;28;19916;-77
2024/01/14 08:27:40;;;;;;;;;;;2.90;99.90;;;;;;5081869;28;19977;-77
2024/01/14 08:30:26;;;;;;;;;;;2.90;99.90;;;;;;5060040;28;19916;-78
2024/01/14 08:33:12;;;;;;;;;;;3.00;99.90;;;;;;5065296;28;19916;-77
2024/01/14 08:35:58;;;;;;;;;;;3.00;99.90;;;;;;5068350;28;20299;-78
2024/01/14 08:38:44;;;;;;;;;;;2.90;99.90;;;;;;5081933;28;19939;-78
2024/01/14 08:41:30;;;;;;;;;;;2.90;99.90;;;;;;5067639;28;19924;-78
2024/01/14 08:44:16;;;;;;;;;;;3.00;99.90;;;;;;5081721;28;19999;-77
2024/01/14 08:47:01;;;;;;;;;;;3.00;99.90;;;;;;5067391;28;19924;-77
2024/01/14 08:49:47;;;;;;;;;;;3.00;99.90;;;;;;5083130;28;19969;-76
2024/01/14 08:52:37;;;;;;;;;;;3.00;99.90;;;;;;5082619;28;20347;-78
2024/01/14 08:55:23;;;;;;;;;;;3.00;99.90;;;;;;5066939;28;20611;-78
2024/01/14 08:58:09;;;;;;;;;;;3.10;99.90;;;;;;5080282;28;20014;-78
2024/01/14 09:00:54;;;;;;;;;;;3.00;99.90;;;;;;5067204;28;20336;-77
2024/01/14 09:03:40;;;;;;;;;;;3.10;99.90;;;;;;5067332;28;19919;-78
2024/01/14 09:06:26;;;;;;;;;;;3.00;99.90;;;;;;5066994;28;20422;-79
2024/01/14 09:09:12;;;;;;;;;;;3.10;99.90;;;;;;5082513;28;20007;-78
2024/01/14 09:11:58;;;;;;;;;;;3.10;99.90;;;;;;5082599;28;19955;-78
2024/01/14 09:14:44;;;;;;;;;;;3.20;99.90;;;;;;5096159;28;19942;-78
2024/01/14 09:17:31;;;;;;;;;;;3.10;99.90;;;;;;5081918;28;19923;-77
2024/01/14 09:20:17;;;;;;;;;;;3.10;99.90;;;;;;5082255;28;20251;-77
2024/01/14 09:23:03;;;;;;;;;;;3.10;99.90;;;;;;5067074;28;20022;-78
2024/01/14 09:25:49;;;;;;;;;;;3.10;99.90;;;;;;5082129;28;19947;-77
2024/01/14 09:28:35;;;;;;;;;;;3.10;99.90;;;;;;5081691;28;19929;-78
2024/01/14 09:31:21;;;;;;;;;;;3.10;99.90;;;;;;5080578;28;19987;-78
2024/01/14 09:34:07;;;;;;;;;;;3.10;99.90;;;;;;5095552;28;19913;-77
2024/01/14 09:36:53;;;;;;;;;;;3.10;99.90;;;;;;5067845;28;19977;-77
2024/01/14 09:39:39;;;;;;;;;;;3.10;99.90;;;;;;5095394;28;19916;-77
2024/01/14 09:42:32;;;;;;;;;;;3.10;99.90;;;;;;5081855;28;19924;-78
2024/01/14 09:45:18;;;;;;;;;;;3.10;99.90;;;;;;5080776;28;19923;-78
2024/01/14 10:23:28;;;;;;;;;;;3.60;99.90;;;;;;5725917;23;19909;-85
2024/01/14 10:26:31;;;;;;;;;;;;;;;;;;;;;
2024/01/14 10:29:50;;;;;;;;;;;;;;;;;;;;;
2024/01/14 10:46:34;;;;;;;;;;;3.40;99.90;;;;;;5032677;23;19934;-73
2024/01/14 10:49:20;;;;;;;;;;;3.40;99.90;;;;;;4960624;28;19995;-74
2024/01/14 10:52:07;;;;;;;;;;;3.40;99.90;;;;;;4971304;28;19914;-74
2024/01/14 10:54:55;;;;;;;;;;;3.30;99.90;;;;;;4981248;28;19928;-74
2024/01/14 10:57:44;;;;;;;;;;;3.20;99.90;;;;;;4961969;28;20246;-75
2024/01/14 11:00:31;;;;;;;;;;;3.20;99.90;;;;;;4956471;28;19921;-75
2024/01/14 11:03:17;;;;;;;;;;;3.20;99.90;;;;;;4961081;28;19914;-76
2024/01/14 11:06:04;;;;;;;;;;;3.10;99.90;;;;;;4968086;28;20290;-76
2024/01/14 11:08:51;;;;;;;;;;;3.20;99.90;;;;;;4978777;28;19980;-75
2024/01/14 11:11:41;;;;;;;;;;;3.20;99.90;;;;;;4962505;28;19917;-75
2024/01/14 11:14:29;;;;;;;;;;;3.20;99.90;;;;;;4967391;28;19924;-75
2024/01/14 11:17:17;;;;;;;;;;;3.20;99.90;;;;;;4967823;28;19993;-74
2024/01/14 11:20:04;;;;;;;;;;;3.20;99.90;;;;;;4975368;28;19918;-74
2024/01/14 11:22:50;;;;;;;;;;;3.20;99.90;;;;;;4949487;28;19922;-74
2024/01/14 11:25:36;;;;;;;;;;;3.20;99.90;;;;;;4955754;28;19940;-75
2024/01/14 11:28:22;;;;;;;;;;;3.20;99.90;;;;;;4971585;28;19918;-74
2024/01/14 11:31:08;;;;;;;;;;;3.20;99.90;;;;;;4977079;28;20393;-75
2024/01/14 11:33:54;;;;;;;;;;;3.10;99.90;;;;;;4959937;28;19917;-75
2024/01/14 11:36:55;;;;;;;;;;;3.20;99.90;;;;;;4966304;28;19987;-75
2024/01/14 11:39:41;;;;;;;;;;;3.20;99.90;;;;;;4964327;28;19932;-75
2024/01/14 11:42:27;;;;;;;;;;;3.20;99.90;;;;;;4951724;28;19914;-74
2024/01/14 11:45:13;;;;;;;;;;;3.10;99.90;;;;;;4964700;28;20312;-75
2024/01/14 11:48:00;;;;;;;;;;;3.10;99.90;;;;;;4963107;28;20295;-75
2024/01/14 11:50:50;;;;;;;;;;;3.10;99.90;;;;;;4979457;28;19928;-75
2024/01/14 11:53:36;;;;;;;;;;;3.10;99.90;;;;;;4970205;28;19913;-74
2024/01/14 11:56:29;;;;;;;;;;;3.10;99.90;;;;;;4983786;28;19917;-74
2024/01/14 11:59:16;;;;;;;;;;;3.10;99.90;;;;;;4982568;28;20049;-74
2024/01/14 12:02:01;;;;;;;;;;;3.10;99.90;;;;;;4982115;28;19921;-75
2024/01/14 12:04:47;;;;;;;;;;;3.10;99.90;;;;;;4968626;28;20235;-74
2024/01/14 12:07:33;;;;;;;;;;;3.10;99.90;;;;;;4951483;28;19914;-74
2024/01/14 12:10:19;;;;;;;;;;;3.10;99.90;;;;;;4968757;28;19913;-75
2024/01/14 12:13:07;;;;;;;;;;;3.00;99.90;;;;;;4967943;28;19957;-74
2024/01/14 12:15:53;;;;;;;;;;;3.10;99.90;;;;;;4962030;28;19988;-74
2024/01/14 12:18:40;;;;;;;;;;;3.00;99.90;;;;;;4964202;28;20220;-74
2024/01/14 12:21:28;;;;;;;;;;;2.90;99.90;;;;;;4961630;28;20302;-74
2024/01/14 12:24:14;;;;;;;;;;;2.90;99.90;;;;;;4955767;28;19918;-74
2024/01/14 12:27:00;;;;;;;;;;;2.90;99.90;;;;;;4966231;28;19928;-74
2024/01/14 12:29:46;;;;;;;;;;;2.90;99.90;;;;;;4963836;28;19918;-74
2024/01/14 12:32:32;;;;;;;;;;;2.80;99.90;;;;;;4951180;28;19918;-74
2024/01/14 12:35:18;;;;;;;;;;;2.80;99.90;;;;;;4976567;28;19953;-74
2024/01/14 12:38:06;;;;;;;;;;;2.80;99.90;;;;;;4983311;28;19917;-74
2024/01/14 12:40:53;;;;;;;;;;;2.80;99.90;;;;;;4950161;28;19922;-74
2024/01/14 12:43:42;;;;;;;;;;;2.90;99.90;;;;;;4962758;28;20036;-75
2024/01/14 12:46:27;;;;;;;;;;;2.90;99.90;;;;;;4941245;28;20358;-74
2024/01/14 12:49:13;;;;;;;;;;;2.90;99.90;;;;;;4958745;28;19914;-74
2024/01/14 12:52:00;;;;;;;;;;;2.90;99.90;;;;;;4958956;28;19918;-74
2024/01/14 12:54:49;;;;;;;;;;;2.90;99.90;;;;;;4958301;28;20255;-74
2024/01/14 12:57:43;;;;;;;;;;;2.90;99.90;;;;;;4956487;29;19918;-74
2024/01/14 13:00:29;;;;;;;;;;;2.90;99.90;;;;;;4956344;29;19933;-74
2024/01/14 13:03:16;;;;;;;;;;;2.90;99.90;;;;;;4961465;28;20053;-74
2024/01/14 13:06:04;;;;;;;;;;;2.90;99.90;;;;;;4962906;28;19997;-74
2024/01/14 13:08:51;;;;;;;;;;;2.90;99.90;;;;;;4976948;28;20353;-74
2024/01/14 13:11:38;;;;;;;;;;;2.90;99.90;;;;;;4962573;28;19914;-74
2024/01/14 13:14:28;;;;;;;;;;;2.90;99.90;;;;;;4958113;29;19914;-74
2024/01/14 13:17:14;;;;;;;;;;;2.90;99.90;;;;;;4957769;29;19922;-75
2024/01/14 13:20:00;;;;;;;;;;;3.00;99.90;;;;;;4958778;28;19919;-74
2024/01/14 13:22:46;;;;;;;;;;;3.00;99.90;;;;;;4955954;28;20220;-74
2024/01/14 13:25:32;;;;;;;;;;;3.00;99.90;;;;;;4971564;28;20331;-74
2024/01/14 13:28:23;;;;;;;;;;;3.00;99.90;;;;;;4964700;28;19925;-74
2024/01/14 13:31:09;;;;;;;;;;;3.00;99.90;;;;;;4961357;28;19915;-74
2024/01/14 13:33:55;;;;;;;;;;;3.00;99.90;;;;;;4952852;28;20619;-74
2024/01/14 13:36:41;;;;;;;;;;;3.00;99.90;;;;;;4974776;28;19922;-75
2024/01/14 13:39:26;;;;;;;;;;;3.00;99.90;;;;;;4962239;28;19914;-74
2024/01/14 13:42:12;;;;;;;;;;;3.00;99.90;;;;;;4975379;28;19914;-74
2024/01/14 13:44:58;;;;;;;;;;;3.00;99.90;;;;;;4963833;28;19922;-74
2024/01/14 13:47:44;;;;;;;;;;;3.00;99.90;;;;;;4962846;28;19918;-75
2024/01/14 13:50:30;;;;;;;;;;;2.90;99.90;;;;;;4961820;28;19917;-75
2024/01/14 13:53:18;;;;;;;;;;;2.90;99.90;;;;;;4967479;28;19953;-74
2024/01/14 13:56:04;;;;;;;;;;;2.80;99.90;;;;;;4964922;28;19941;-74
2024/01/14 13:58:50;;;;;;;;;;;2.80;99.90;;;;;;4965812;28;19996;-75
2024/01/14 14:01:39;;;;;;;;;;;2.80;99.90;;;;;;4964033;28;20052;-75
2024/01/14 14:04:25;;;;;;;;;;;2.70;99.90;;;;;;4959280;28;20245;-75
2024/01/14 14:07:14;;;;;;;;;;;2.80;99.90;;;;;;4964155;28;20333;-75
2024/01/14 14:10:00;;;;;;;;;;;2.70;99.90;;;;;;4978270;28;19965;-76
2024/01/14 14:12:46;;;;;;;;;;;2.80;99.90;;;;;;4970072;28;19925;-75
2024/01/14 14:15:32;;;;;;;;;;;2.80;99.90;;;;;;4947165;28;19976;-75
2024/01/14 14:18:18;;;;;;;;;;;2.80;99.90;;;;;;4974369;28;19990;-75
2024/01/14 14:21:03;;;;;;;;;;;2.70;99.90;;;;;;4955337;28;20637;-76
2024/01/14 14:23:49;;;;;;;;;;;2.70;99.90;;;;;;4978317;28;19975;-75
2024/01/14 14:26:35;;;;;;;;;;;2.70;99.90;;;;;;4976331;28;19917;-74
2024/01/14 14:29:21;;;;;;;;;;;2.70;99.90;;;;;;4968833;28;20342;-75
2024/01/14 14:32:07;;;;;;;;;;;2.60;99.90;;;;;;4978190;28;19918;-77
2024/01/14 14:34:53;;;;;;;;;;;2.70;99.90;;;;;;4968401;28;19918;-76
2024/01/14 14:37:39;;;;;;;;;;;2.70;99.90;;;;;;4963928;28;19914;-75
2024/01/14 14:40:25;;;;;;;;;;;2.70;99.90;;;;;;4976228;28;20896;-75
2024/01/14 14:43:11;;;;;;;;;;;2.70;99.90;;;;;;4955893;28;19913;-76
2024/01/14 14:45:57;;;;;;;;;;;2.70;99.90;;;;;;4966012;28;19926;-75
2024/01/14 14:48:43;;;;;;;;;;;2.70;99.90;;;;;;4976468;28;20251;-75
2024/01/14 14:51:29;;;;;;;;;;;2.70;99.90;;;;;;4972504;28;20318;-76
2024/01/14 14:54:15;;;;;;;;;;;2.70;99.90;;;;;;4991336;28;19981;-75
2024/01/14 14:57:00;;;;;;;;;;;2.70;99.90;;;;;;4992954;28;19928;-75
2024/01/14 14:59:46;;;;;;;;;;;2.70;99.90;;;;;;4967366;28;19925;-76
2024/01/14 15:02:32;;;;;;;;;;;2.70;99.90;;;;;;4953333;28;19918;-76
2024/01/14 15:05:18;;;;;;;;;;;2.70;99.90;;;;;;4967377;28;19924;-75
2024/01/14 15:08:04;;;;;;;;;;;2.60;99.90;;;;;;4965587;28;19925;-76
2024/01/14 15:10:50;;;;;;;;;;;2.60;99.90;;;;;;4966217;28;19917;-76
2024/01/14 15:13:36;;;;;;;;;;;2.60;99.90;;;;;;4967157;28;19914;-75
2024/01/14 15:16:22;;;;;;;;;;;2.60;99.90;;;;;;4964197;28;20392;-75
2024/01/14 15:19:08;;;;;;;;;;;2.60;99.90;;;;;;4967115;28;19917;-76
2024/01/14 15:21:53;;;;;;;;;;;2.60;99.90;;;;;;4963463;28;20055;-77
2024/01/14 15:24:39;;;;;;;;;;;2.60;99.90;;;;;;4978381;28;19925;-75
2024/01/14 15:27:26;;;;;;;;;;;2.60;99.90;;;;;;4972446;28;19918;-76
2024/01/14 15:30:12;;;;;;;;;;;2.50;99.90;;;;;;4962118;28;19964;-75
2024/01/14 15:32:58;;;;;;;;;;;2.50;99.90;;;;;;4979894;28;19921;-77
2024/01/14 15:35:44;;;;;;;;;;;2.50;99.90;;;;;;4979547;28;19922;-77
2024/01/14 15:38:30;;;;;;;;;;;2.50;99.90;;;;;;4967921;28;19917;-77
2024/01/14 15:41:16;;;;;;;;;;;2.40;99.90;;;;;;4960435;28;19922;-76
2024/01/14 15:44:02;;;;;;;;;;;2.40;99.90;;;;;;4976912;28;19929;-76
2024/01/14 15:46:48;;;;;;;;;;;2.40;99.90;;;;;;4965847;28;19982;-77
2024/01/14 15:49:34;;;;;;;;;;;2.40;99.90;;;;;;4961312;28;19975;-77
2024/01/14 15:52:20;;;;;;;;;;;2.30;99.90;;;;;;4964660;28;19918;-76
2024/01/14 15:55:06;;;;;;;;;;;2.30;99.90;;;;;;4966198;28;19975;-77
2024/01/14 15:57:52;;;;;;;;;;;2.30;99.90;;;;;;4962767;28;19941;-77
2024/01/14 16:00:38;;;;;;;;;;;2.20;99.90;;;;;;4951893;28;20269;-75
2024/01/14 16:03:24;;;;;;;;;;;2.20;99.90;;;;;;4978347;28;19917;-76
2024/01/14 16:06:10;;;;;;;;;;;2.20;99.90;;;;;;4972938;28;19917;-75
2024/01/14 16:08:56;;;;;;;;;;;2.10;99.90;;;;;;4990031;28;19918;-75
2024/01/14 16:11:41;;;;;;;;;;;2.10;99.90;;;;;;4981665;28;20416;-75
2024/01/14 16:14:27;;;;;;;;;;;2.10;99.90;;;;;;4955441;28;19969;-75
2024/01/14 16:17:13;;;;;;;;;;;2.10;99.90;;;;;;4969342;28;19914;-75
2024/01/14 16:19:59;;;;;;;;;;;2.00;99.90;;;;;;4967849;28;19918;-75
2024/01/14 16:22:45;;;;;;;;;;;2.00;99.90;;;;;;4976182;28;19933;-77
2024/01/14 16:25:31;;;;;;;;;;;2.00;99.90;;;;;;4968449;28;19914;-77
2024/01/14 16:28:17;;;;;;;;;;;2.00;99.90;;;;;;4964893;28;19917;-75
2024/01/14 16:31:04;;;;;;;;;;;2.00;99.90;;;;;;4996858;28;20008;-77
2024/01/14 16:33:50;;;;;;;;;;;2.00;99.90;;;;;;4965827;28;19922;-77
2024/01/14 16:36:37;;;;;;;;;;;2.00;99.90;;;;;;4983996;28;20353;-75
2024/01/14 16:39:24;;;;;;;;;;;2.10;99.90;;;;;;4983327;28;19997;-77
2024/01/14 16:42:10;;;;;;;;;;;2.10;99.90;;;;;;4965685;28;19964;-75
2024/01/14 16:44:57;;;;;;;;;;;2.10;99.90;;;;;;4971581;28;20254;-75
2024/01/14 16:47:43;;;;;;;;;;;2.10;99.90;;;;;;4971305;28;19914;-75
2024/01/14 16:50:29;;;;;;;;;;;2.00;99.90;;;;;;4967607;28;19918;-75
2024/01/14 16:53:18;;;;;;;;;;;2.00;99.90;;;;;;4960629;28;19929;-78
2024/01/14 16:56:05;;;;;;;;;;;2.00;99.90;;;;;;4979004;28;19918;-75
2024/01/14 16:58:51;;;;;;;;;;;2.10;99.90;;;;;;4969488;28;20327;-74
2024/01/14 17:01:37;;;;;;;;;;;2.00;99.90;;;;;;4968204;28;20290;-76
2024/01/14 17:04:24;;;;;;;;;;;2.10;99.90;;;;;;4978392;28;19914;-75
2024/01/14 17:07:10;;;;;;;;;;;2.10;99.90;;;;;;4996859;28;20544;-77
2024/01/14 17:09:56;;;;;;;;;;;2.10;99.90;;;;;;4965467;28;19940;-77
2024/01/14 17:12:45;;;;;;;;;;;2.10;99.90;;;;;;4981747;28;19921;-77